createdAt,value
2023-03-20T00:09:07.427Z,1.95
2023-03-20T00:14:13.801Z,3.05
2023-03-20T00:19:20.844Z,1.98
2023-03-20T00:24:25.292Z,2.42
2023-03-20T00:29:31.286Z,2.30
2023-03-20T00:34:35.965Z,2.33
2023-03-20T00:39:39.227Z,2.70
2023-03-20T00:44:49.691Z,2.63
2023-03-20T00:49:55.978Z,2.08
2023-03-20T00:54:59.286Z,2.30
2023-03-20T01:00:05.418Z,2.42
2023-03-20T01:05:10.453Z,2.33
2023-03-20T01:10:14.869Z,2.50
2023-03-20T01:15:23.715Z,2.85
2023-03-20T01:20:30.670Z,3.70
2023-03-20T01:25:34.244Z,2.60
2023-03-20T01:30:37.615Z,3.35
2023-03-20T01:35:42.361Z,3.38
2023-03-20T01:40:54.327Z,3.30
2023-03-20T01:46:02.951Z,3.78
2023-03-20T01:51:10.495Z,3.45
2023-03-20T01:56:15.565Z,3.10
2023-03-20T02:01:27.683Z,2.67
2023-03-20T02:06:33.471Z,3.00
2023-03-20T02:11:52.402Z,2.75
2023-03-20T02:16:57.163Z,3.30
2023-03-20T02:22:47.519Z,3.30
2023-03-20T02:28:24.839Z,3.38
2023-03-20T02:34:00.640Z,3.17
2023-03-20T02:39:29.161Z,3.17
2023-03-20T02:44:39.282Z,2.65
2023-03-20T02:49:58.047Z,3.10
2023-03-20T02:55:15.967Z,2.90
2023-03-20T03:00:28.470Z,2.97
2023-03-20T03:05:37.765Z,3.08
2023-03-20T03:10:46.569Z,3.30
2023-03-20T03:15:52.562Z,3.17
2023-03-20T03:20:59.417Z,3.10
2023-03-20T03:26:08.145Z,3.53
2023-03-20T03:31:17.623Z,3.03
2023-03-20T03:36:28.408Z,3.80
2023-03-20T03:41:37.450Z,3.17
2023-03-20T03:46:46.455Z,3.78
2023-03-20T03:51:54.652Z,3.50
2023-03-20T03:57:01.747Z,3.75
2023-03-20T04:02:08.555Z,3.40
2023-03-20T04:07:12.211Z,3.40
2023-03-20T04:12:34.886Z,4.20
2023-03-20T04:17:38.677Z,3.63
2023-03-20T04:22:42.948Z,3.90
2023-03-20T04:27:50.772Z,5.28
2023-03-20T04:33:17.204Z,4.65
2023-03-20T04:43:48.095Z,4.93
2023-03-20T04:48:51.789Z,5.57
2023-03-20T04:53:56.254Z,5.50
2023-03-20T04:59:01.378Z,5.38
2023-03-20T05:04:06.210Z,4.93
2023-03-20T05:09:10.480Z,5.95
2023-03-20T05:14:15.963Z,4.82
2023-03-20T05:19:28.524Z,5.47
2023-03-20T05:24:57.258Z,4.68
2023-03-20T05:30:14.646Z,5.18
2023-03-20T05:35:36.300Z,4.90
2023-03-20T05:40:49.601Z,5.78
2023-03-20T05:45:56.978Z,5.72
2023-03-20T05:51:32.368Z,7.13
2023-03-20T05:56:52.557Z,4.63
2023-03-20T06:02:08.660Z,4.45
2023-03-20T06:07:14.748Z,4.22
2023-03-20T06:12:21.540Z,3.67
2023-03-20T06:17:26.345Z,4.85
2023-03-20T06:22:36.494Z,4.28
2023-03-20T06:27:40.071Z,3.83
2023-03-20T06:32:45.130Z,3.88
2023-03-20T06:37:50.254Z,4.70
2023-03-20T06:42:58.900Z,4.32
2023-03-20T06:48:13.490Z,4.85
2023-03-20T06:53:17.022Z,4.37
2023-03-20T06:58:36.760Z,5.90
2023-03-20T07:03:42.112Z,5.63
2023-03-20T07:08:46.547Z,7.10
2023-03-20T07:13:50.313Z,9.13
2023-03-20T07:19:15.976Z,7.75
2023-03-20T07:24:22.070Z,9.52
2023-03-20T07:29:25.549Z,11.88
2023-03-20T07:34:30.730Z,11.57
2023-03-20T07:39:35.582Z,11.20
2023-03-20T07:44:58.710Z,12.90
2023-03-20T07:50:04.547Z,12.55
2023-03-20T07:55:09.551Z,13.98
2023-03-20T08:00:15.278Z,15.73
2023-03-20T08:05:20.069Z,16.50
2023-03-20T08:10:23.391Z,16.53
2023-03-20T08:15:26.620Z,19.73
2023-03-20T08:20:31.786Z,19.02
2023-03-20T08:25:35.398Z,18.60
2023-03-20T08:30:39.084Z,17.65
2023-03-20T08:35:44.537Z,17.10
2023-03-20T08:40:48.256Z,18.08
2023-03-20T08:45:51.886Z,18.85
2023-03-20T08:50:56.589Z,22.40
2023-03-20T08:55:59.824Z,19.77
2023-03-20T09:01:06.485Z,20.48
2023-03-20T09:06:12.269Z,19.27
2023-03-20T09:11:15.564Z,20.60
2023-03-20T09:16:19.018Z,24.40
2023-03-20T09:21:23.720Z,21.63
2023-03-20T09:26:27.046Z,21.70
2023-03-20T09:31:30.308Z,23.45
2023-03-20T09:36:35.045Z,23.08
2023-03-20T09:41:53.132Z,22.03
2023-03-20T09:47:19.941Z,22.02
2023-03-20T09:52:29.595Z,21.25
2023-03-20T09:57:40.552Z,22.02
2023-03-20T10:02:51.189Z,21.67
2023-03-20T10:07:56.782Z,22.88
2023-03-20T10:18:18.010Z,20.88
2023-03-20T10:23:28.443Z,21.88
2023-03-20T10:28:39.444Z,22.27
2023-03-20T10:33:55.987Z,22.33
2023-03-20T10:39:06.730Z,23.75
2023-03-20T10:44:15.990Z,23.70
2023-03-20T10:49:22.471Z,21.55
2023-03-20T10:54:29.598Z,23.02
2023-03-20T10:59:39.183Z,21.05
2023-03-20T11:04:42.664Z,21.40
2023-03-20T11:09:47.245Z,24.15
2023-03-20T11:14:50.453Z,22.05
2023-03-20T11:19:53.646Z,22.30
2023-03-20T11:25:02.598Z,22.13
2023-03-20T11:30:08.690Z,23.33
2023-03-20T11:35:19.551Z,24.45
2023-03-20T11:40:30.595Z,23.00
2023-03-20T11:45:38.084Z,26.25
2023-03-20T11:50:47.207Z,25.80
2023-03-20T11:56:04.832Z,24.60
2023-03-20T12:01:13.383Z,21.60
2023-03-20T12:06:19.974Z,22.17
2023-03-20T12:11:39.468Z,23.45
2023-03-20T12:16:46.771Z,22.90
2023-03-20T12:21:56.773Z,25.05
2023-03-20T12:27:14.251Z,23.52
2023-03-20T12:32:22.683Z,27.25
2023-03-20T12:37:26.119Z,23.45
2023-03-20T12:42:43.444Z,21.92
2023-03-20T12:47:58.348Z,22.73
2023-03-20T12:53:19.686Z,20.37
2023-03-20T12:58:30.831Z,20.48
2023-03-20T13:03:49.547Z,18.52
2023-03-20T13:09:19.384Z,18.70
2023-03-20T13:14:30.087Z,14.93
2023-03-20T13:19:39.353Z,16.05
2023-03-20T13:24:46.458Z,16.42
2023-03-20T13:29:56.246Z,14.77
2023-03-20T13:35:14.866Z,15.60
2023-03-20T13:40:23.768Z,14.18
2023-03-20T13:45:36.647Z,11.60
2023-03-20T13:50:47.355Z,12.77
2023-03-20T13:55:57.440Z,12.85
2023-03-20T14:01:09.176Z,13.55
2023-03-20T14:06:46.684Z,12.77
2023-03-20T14:11:50.212Z,11.75
2023-03-20T14:17:04.677Z,12.05
2023-03-20T14:22:10.601Z,10.98
2023-03-20T14:27:29.920Z,12.10
2023-03-20T14:32:59.264Z,11.00
2023-03-20T14:38:16.489Z,12.18
2023-03-20T14:43:31.359Z,12.95
2023-03-20T14:48:43.220Z,11.50
2023-03-20T14:53:55.070Z,10.45
2023-03-20T14:59:03.061Z,11.25
2023-03-20T15:04:10.681Z,10.50
2023-03-20T15:09:15.037Z,11.20
2023-03-20T15:14:24.013Z,10.00
2023-03-20T15:19:29.623Z,10.13
2023-03-20T15:24:33.384Z,10.02
2023-03-20T15:29:37.084Z,10.52
2023-03-20T15:34:44.469Z,12.02
2023-03-20T15:39:50.739Z,12.23
2023-03-20T15:44:56.235Z,11.57
2023-03-20T15:55:09.212Z,10.93
2023-03-20T16:00:18.752Z,11.73
2023-03-20T16:05:27.960Z,11.38
2023-03-20T16:10:35.735Z,8.82
2023-03-20T16:15:40.620Z,7.40
2023-03-20T16:20:50.757Z,7.03
2023-03-20T16:25:59.502Z,6.60
2023-03-20T16:31:10.689Z,7.82
2023-03-20T16:36:20.964Z,7.35
2023-03-20T16:41:31.031Z,7.20
2023-03-20T16:46:34.723Z,6.82
2023-03-20T16:51:40.048Z,7.50
2023-03-20T16:56:43.747Z,6.88
2023-03-20T17:01:49.168Z,7.07
2023-03-20T17:06:56.094Z,7.50
2023-03-20T17:12:04.568Z,7.78
2023-03-20T17:17:13.416Z,8.23
2023-03-20T17:22:20.647Z,7.72
2023-03-20T17:27:24.977Z,7.38
2023-03-20T17:32:30.267Z,8.35
2023-03-20T17:37:35.221Z,8.23
2023-03-20T17:42:39.425Z,8.77
2023-03-20T17:47:44.652Z,8.63
2023-03-20T17:52:49.192Z,11.75
2023-03-20T17:57:52.395Z,8.68
2023-03-20T18:02:55.596Z,10.27
2023-03-20T18:08:00.258Z,9.98
2023-03-20T18:13:03.441Z,9.97
2023-03-20T18:18:07.825Z,9.80
2023-03-20T18:23:12.913Z,9.17
2023-03-20T18:28:22.623Z,9.63
2023-03-20T18:33:28.093Z,11.10
2023-03-20T18:38:33.050Z,10.93
2023-03-20T18:43:36.387Z,10.43
2023-03-20T18:48:39.956Z,10.48
2023-03-20T18:53:44.847Z,11.50
2023-03-20T18:58:49.178Z,13.30
2023-03-20T19:03:53.847Z,14.10
2023-03-20T19:08:58.796Z,14.80
2023-03-20T19:14:01.984Z,14.07
2023-03-20T19:19:07.219Z,14.88
2023-03-20T19:24:12.081Z,14.57
2023-03-20T19:29:15.453Z,16.13
2023-03-20T19:35:04.563Z,15.32
2023-03-20T19:39:45.334Z,15.97
2023-03-20T19:44:48.526Z,17.13
2023-03-20T19:49:51.843Z,16.38
2023-03-20T19:55:03.014Z,16.40
2023-03-20T20:05:33.037Z,16.02
2023-03-20T20:10:41.152Z,15.23
2023-03-20T20:15:45.154Z,15.30
2023-03-20T20:31:19.792Z,15.55
2023-03-20T20:41:48.793Z,15.18
2023-03-20T20:46:52.042Z,14.57
2023-03-20T20:51:55.403Z,15.43
2023-03-20T20:57:00.336Z,16.98
2023-03-20T21:02:10.500Z,17.63
2023-03-20T21:07:14.753Z,17.00
2023-03-20T21:12:34.778Z,15.95
2023-03-20T21:17:50.466Z,16.77
2023-03-20T21:23:02.350Z,16.67
2023-03-20T21:28:07.690Z,17.15
2023-03-20T21:33:11.334Z,17.65
2023-03-20T21:43:39.609Z,16.60
2023-03-20T21:49:24.632Z,17.42
2023-03-20T22:00:31.667Z,18.17
2023-03-20T22:42:57.364Z,21.38
2023-03-20T22:48:08.921Z,17.17
2023-03-20T22:53:12.275Z,18.85
2023-03-20T22:58:17.683Z,17.20
2023-03-20T23:03:39.955Z,18.52
2023-03-20T23:08:50.705Z,16.95
2023-03-20T23:13:57.618Z,16.38
2023-03-20T23:19:02.348Z,17.02
2023-03-20T23:24:06.155Z,14.70
2023-03-20T23:29:09.845Z,15.48
2023-03-20T23:34:17.414Z,14.05
2023-03-20T23:39:21.279Z,13.35
2023-03-20T23:44:24.435Z,12.80
2023-03-20T23:49:28.978Z,14.85
2023-03-20T23:54:32.137Z,13.85
2023-03-20T23:59:37.231Z,13.15
